createdAt,value
2023-03-20T00:00:42.913Z,7.30
2023-03-20T00:03:30.599Z,8.03
2023-03-20T00:06:28.903Z,7.37
2023-03-20T00:09:18.094Z,5.67
2023-03-20T00:12:06.415Z,6.07
2023-03-20T00:14:54.140Z,6.97
2023-03-20T00:17:41.628Z,6.07
2023-03-20T00:20:31.536Z,7.03
2023-03-20T00:23:19.450Z,5.77
2023-03-20T00:26:13.759Z,5.37
2023-03-20T00:29:07.042Z,6.97
2023-03-20T00:31:55.852Z,6.07
2023-03-20T00:34:43.658Z,7.50
2023-03-20T00:37:31.114Z,6.20
2023-03-20T00:40:20.048Z,5.67
2023-03-20T00:43:13.325Z,6.07
2023-03-20T00:46:01.130Z,6.47
2023-03-20T00:48:49.930Z,6.30
2023-03-20T00:51:38.290Z,5.47
2023-03-20T00:54:26.269Z,5.93
2023-03-20T00:57:20.806Z,6.37
2023-03-20T01:00:51.380Z,6.03
2023-03-20T01:03:40.773Z,7.30
2023-03-20T01:06:29.766Z,5.93
2023-03-20T01:09:17.303Z,6.33
2023-03-20T01:12:07.903Z,6.40
2023-03-20T01:14:58.025Z,7.50
2023-03-20T01:17:45.802Z,7.23
2023-03-20T01:20:33.257Z,7.70
2023-03-20T01:23:23.112Z,6.67
2023-03-20T01:26:27.359Z,7.13
2023-03-20T01:29:23.396Z,6.40
2023-03-20T01:32:18.002Z,7.90
2023-03-20T01:35:06.039Z,7.27
2023-03-20T01:37:56.396Z,6.90
2023-03-20T01:41:17.117Z,7.73
2023-03-20T01:44:28.246Z,5.87
2023-03-20T01:47:23.935Z,5.53
2023-03-20T01:50:32.494Z,6.20
2023-03-20T01:53:27.585Z,6.63
2023-03-20T01:56:17.827Z,7.00
2023-03-20T01:59:15.334Z,6.30
2023-03-20T02:02:02.898Z,6.57
2023-03-20T02:04:57.904Z,7.20
2023-03-20T02:07:56.274Z,5.93
2023-03-20T02:10:46.897Z,5.97
2023-03-20T02:13:36.426Z,5.83
2023-03-20T02:16:24.015Z,6.37
2023-03-20T02:19:35.789Z,5.47
2023-03-20T02:22:47.839Z,6.27
2023-03-20T02:25:59.877Z,6.57
2023-03-20T02:29:05.207Z,6.23
2023-03-20T02:32:49.857Z,5.57
2023-03-20T02:36:08.261Z,5.93
2023-03-20T02:39:00.740Z,6.73
2023-03-20T02:42:03.797Z,4.97
2023-03-20T02:45:04.554Z,6.23
2023-03-20T02:48:17.065Z,7.07
2023-03-20T02:51:22.513Z,6.33
2023-03-20T02:54:41.310Z,5.77
2023-03-20T02:58:02.877Z,6.07
2023-03-20T03:01:15.632Z,6.20
2023-03-20T03:04:21.932Z,6.40
2023-03-20T03:07:14.961Z,5.93
2023-03-20T03:10:08.820Z,5.93
2023-03-20T03:13:00.547Z,6.60
2023-03-20T03:15:56.239Z,4.70
2023-03-20T03:18:46.788Z,4.73
2023-03-20T03:21:39.362Z,5.07
2023-03-20T03:24:43.576Z,12.02
2023-03-20T03:27:38.798Z,5.83
2023-03-20T03:30:31.364Z,6.27
2023-03-20T03:33:30.175Z,6.33
2023-03-20T03:36:41.426Z,5.37
2023-03-20T03:39:38.008Z,6.13
2023-03-20T03:43:01.842Z,5.57
2023-03-20T03:46:11.650Z,5.23
2023-03-20T03:49:01.862Z,5.90
2023-03-20T03:52:00.721Z,5.13
2023-03-20T03:55:03.304Z,6.57
2023-03-20T03:58:04.747Z,5.37
2023-03-20T04:00:56.344Z,5.57
2023-03-20T04:03:51.250Z,5.13
2023-03-20T04:06:38.834Z,6.27
2023-03-20T04:09:26.279Z,6.37
2023-03-20T04:12:49.460Z,6.23
2023-03-20T04:15:37.164Z,6.57
2023-03-20T04:18:24.770Z,6.00
2023-03-20T04:21:13.132Z,6.30
2023-03-20T04:24:00.808Z,5.87
2023-03-20T04:26:48.265Z,6.70
2023-03-20T04:29:39.087Z,6.60
2023-03-20T04:32:26.834Z,7.77
2023-03-20T04:35:14.307Z,5.73
2023-03-20T04:38:01.828Z,6.40
2023-03-20T04:40:50.045Z,7.00
2023-03-20T04:43:37.551Z,5.77
2023-03-20T04:46:25.365Z,6.63
2023-03-20T04:49:13.015Z,6.87
2023-03-20T04:52:00.711Z,6.60
2023-03-20T04:54:48.222Z,6.40
2023-03-20T04:57:35.817Z,5.63
2023-03-20T05:00:23.854Z,5.63
2023-03-20T05:03:11.398Z,5.90
2023-03-20T05:05:59.596Z,5.33
2023-03-20T05:08:47.171Z,6.03
2023-03-20T05:11:34.662Z,4.70
2023-03-20T05:14:22.152Z,5.00
2023-03-20T05:17:09.706Z,5.43
2023-03-20T05:19:57.521Z,5.13
2023-03-20T05:22:44.977Z,5.47
2023-03-20T05:25:32.486Z,5.37
2023-03-20T05:28:20.008Z,5.70
2023-03-20T05:31:08.380Z,5.27
2023-03-20T05:33:55.867Z,5.27
2023-03-20T05:36:43.279Z,5.03
2023-03-20T05:39:30.742Z,5.37
2023-03-20T05:42:18.209Z,5.67
2023-03-20T05:45:07.225Z,6.57
2023-03-20T05:47:54.711Z,6.17
2023-03-20T05:50:42.316Z,5.67
2023-03-20T05:53:29.732Z,5.73
2023-03-20T05:56:17.217Z,5.87
2023-03-20T05:59:04.683Z,5.87
2023-03-20T06:01:52.435Z,6.07
2023-03-20T06:04:39.860Z,5.13
2023-03-20T06:07:27.323Z,6.30
2023-03-20T06:10:15.014Z,5.00
2023-03-20T06:13:02.580Z,4.97
2023-03-20T06:15:50.043Z,4.67
2023-03-20T06:18:39.498Z,5.47
2023-03-20T06:21:27.086Z,5.07
2023-03-20T06:24:15.616Z,4.73
2023-03-20T06:27:03.159Z,5.47
2023-03-20T06:29:50.720Z,5.50
2023-03-20T06:32:38.318Z,6.00
2023-03-20T06:35:30.785Z,5.80
2023-03-20T06:38:18.261Z,6.70
2023-03-20T06:41:07.023Z,6.23
2023-03-20T06:43:54.670Z,6.13
2023-03-20T06:46:42.143Z,5.83
2023-03-20T06:49:29.700Z,6.40
2023-03-20T06:52:21.685Z,6.40
2023-03-20T06:55:09.662Z,5.97
2023-03-20T06:57:57.603Z,6.60
2023-03-20T07:00:46.651Z,5.60
2023-03-20T07:03:34.182Z,6.37
2023-03-20T07:06:21.632Z,6.30
2023-03-20T07:09:09.149Z,4.87
2023-03-20T07:11:56.736Z,5.30
2023-03-20T07:14:44.179Z,4.83
2023-03-20T07:17:31.887Z,4.53
2023-03-20T07:20:19.510Z,5.50
2023-03-20T07:23:07.182Z,5.00
2023-03-20T07:25:55.009Z,4.80
2023-03-20T07:28:42.557Z,4.50
2023-03-20T07:31:32.531Z,4.30
2023-03-20T07:34:20.033Z,5.60
2023-03-20T07:37:07.507Z,4.73
2023-03-20T07:39:54.941Z,4.80
2023-03-20T07:42:42.563Z,5.73
2023-03-20T07:45:30.118Z,4.13
2023-03-20T07:48:17.600Z,4.87
2023-03-20T07:51:07.259Z,4.83
2023-03-20T07:53:54.728Z,4.87
2023-03-20T07:56:42.647Z,4.17
2023-03-20T07:59:30.112Z,4.43
2023-03-20T08:02:18.567Z,4.43
2023-03-20T08:05:06.656Z,4.30
2023-03-20T08:07:54.252Z,5.13
2023-03-20T08:10:42.050Z,3.83
2023-03-20T08:13:29.604Z,4.87
2023-03-20T08:16:17.159Z,4.63
2023-03-20T08:19:06.286Z,4.90
2023-03-20T08:21:53.936Z,5.33
2023-03-20T08:24:41.552Z,4.93
2023-03-20T08:27:29.491Z,8.17
2023-03-20T08:30:17.181Z,4.10
2023-03-20T08:33:04.712Z,4.60
2023-03-20T08:35:59.274Z,4.93
2023-03-20T08:38:49.007Z,4.23
2023-03-20T08:41:42.056Z,4.70
2023-03-20T08:44:29.646Z,4.33
2023-03-20T08:47:17.279Z,5.40
2023-03-20T08:50:05.567Z,5.00
2023-03-20T08:52:53.535Z,5.20
2023-03-20T08:55:41.540Z,5.70
2023-03-20T08:58:30.068Z,4.13
2023-03-20T09:01:17.555Z,4.10
2023-03-20T09:04:05.481Z,4.97
2023-03-20T09:06:52.981Z,4.35
2023-03-20T09:09:40.503Z,4.70
2023-03-20T09:12:28.099Z,4.50
2023-03-20T09:15:15.557Z,4.30
2023-03-20T09:18:04.077Z,4.47
2023-03-20T09:20:52.092Z,3.85
2023-03-20T09:23:39.604Z,4.70
2023-03-20T09:26:27.073Z,4.68
2023-03-20T09:29:14.571Z,5.20
2023-03-20T09:32:02.427Z,5.30
2023-03-20T09:34:49.868Z,4.43
2023-03-20T09:37:37.294Z,4.40
2023-03-20T09:40:41.338Z,5.10
2023-03-20T09:43:44.876Z,5.43
2023-03-20T09:46:50.432Z,4.57
2023-03-20T09:50:03.598Z,4.90
2023-03-20T09:53:07.988Z,4.40
2023-03-20T09:55:57.910Z,4.55
2023-03-20T09:58:56.282Z,5.05
2023-03-20T10:01:59.678Z,4.60
2023-03-20T10:04:49.321Z,4.53
2023-03-20T10:07:36.757Z,4.32
2023-03-20T10:10:53.860Z,4.73
2023-03-20T10:14:47.233Z,4.60
2023-03-20T10:17:52.086Z,4.37
2023-03-20T10:20:51.621Z,3.87
2023-03-20T10:24:03.942Z,4.10
2023-03-20T10:26:55.796Z,4.43
2023-03-20T10:30:21.335Z,4.13
2023-03-20T10:33:36.247Z,4.27
2023-03-20T10:36:56.148Z,4.80
2023-03-20T10:40:20.887Z,3.90
2023-03-20T10:43:47.346Z,3.85
2023-03-20T10:46:46.112Z,3.47
2023-03-20T10:49:45.456Z,4.60
2023-03-20T10:52:38.127Z,4.47
2023-03-20T10:55:33.456Z,4.00
2023-03-20T10:58:26.706Z,3.70
2023-03-20T11:01:14.604Z,3.60
2023-03-20T11:04:02.304Z,3.85
2023-03-20T11:07:10.662Z,3.38
2023-03-20T11:10:08.579Z,3.95
2023-03-20T11:12:56.055Z,3.35
2023-03-20T11:15:43.881Z,4.30
2023-03-20T11:18:31.820Z,3.38
2023-03-20T11:21:25.459Z,3.30
2023-03-20T11:24:51.472Z,3.22
2023-03-20T11:27:38.941Z,2.92
2023-03-20T11:30:27.102Z,3.40
2023-03-20T11:33:17.181Z,3.42
2023-03-20T11:36:21.996Z,2.80
2023-03-20T11:39:16.144Z,3.03
2023-03-20T11:42:04.315Z,3.35
2023-03-20T11:45:01.591Z,2.97
2023-03-20T11:47:53.277Z,3.38
2023-03-20T11:51:22.856Z,3.22
2023-03-20T11:54:21.011Z,3.20
2023-03-20T11:57:42.049Z,3.72
2023-03-20T12:00:42.984Z,2.70
2023-03-20T12:03:59.932Z,3.10
2023-03-20T12:07:12.817Z,3.10
2023-03-20T12:10:14.799Z,3.33
2023-03-20T12:13:23.616Z,2.83
2023-03-20T12:16:21.969Z,3.00
2023-03-20T12:19:30.703Z,2.15
2023-03-20T12:22:34.746Z,3.03
2023-03-20T12:25:28.568Z,3.15
2023-03-20T12:28:47.406Z,3.45
2023-03-20T12:31:52.111Z,2.80
2023-03-20T12:34:50.452Z,2.45
2023-03-20T12:37:38.608Z,2.40
2023-03-20T12:40:46.792Z,3.03
2023-03-20T12:43:58.395Z,3.03
2023-03-20T12:47:24.099Z,3.07
2023-03-20T12:50:36.492Z,3.07
2023-03-20T12:54:10.671Z,2.90
2023-03-20T12:57:16.073Z,2.53
2023-03-20T13:00:24.946Z,2.60
2023-03-20T13:03:41.423Z,2.83
2023-03-20T13:06:55.972Z,3.42
2023-03-20T13:09:58.412Z,2.00
2023-03-20T13:13:22.529Z,3.17
2023-03-20T13:16:33.686Z,3.92
2023-03-20T13:19:39.936Z,3.25
2023-03-20T13:23:08.973Z,3.63
2023-03-20T13:26:46.609Z,3.05
2023-03-20T13:30:14.930Z,3.13
2023-03-20T13:33:38.968Z,2.92
2023-03-20T13:36:54.140Z,2.90
2023-03-20T13:40:04.804Z,3.13
2023-03-20T13:43:17.809Z,3.05
2023-03-20T13:46:14.949Z,3.03
2023-03-20T13:49:16.454Z,3.30
2023-03-20T13:52:23.585Z,3.65
2023-03-20T13:56:03.153Z,3.08
2023-03-20T13:59:10.789Z,3.08
2023-03-20T14:02:44.355Z,3.33
2023-03-20T14:05:39.286Z,2.50
2023-03-20T14:08:33.598Z,3.15
2023-03-20T14:11:21.086Z,3.25
2023-03-20T14:14:32.458Z,2.83
2023-03-20T14:17:32.352Z,6.93
2023-03-20T14:20:43.594Z,3.15
2023-03-20T14:23:42.376Z,3.08
2023-03-20T14:26:36.642Z,3.17
2023-03-20T14:29:30.319Z,3.63
2023-03-20T14:32:17.767Z,3.38
2023-03-20T14:35:14.105Z,3.30
2023-03-20T14:38:33.068Z,3.78
2023-03-20T14:41:27.505Z,2.55
2023-03-20T14:45:12.927Z,3.58
2023-03-20T14:48:38.661Z,2.47
2023-03-20T14:51:51.195Z,3.60
2023-03-20T14:54:41.808Z,3.30
2023-03-20T14:57:52.814Z,2.80
2023-03-20T15:00:47.176Z,2.88
2023-03-20T15:03:37.802Z,3.22
2023-03-20T15:06:28.283Z,2.55
2023-03-20T15:09:16.790Z,3.63
2023-03-20T15:12:04.959Z,3.67
2023-03-20T15:15:06.261Z,3.83
2023-03-20T15:17:53.923Z,3.45
2023-03-20T15:20:44.917Z,3.60
2023-03-20T15:23:34.180Z,3.17
2023-03-20T15:26:25.395Z,3.58
2023-03-20T15:29:19.248Z,4.07
2023-03-20T15:32:14.270Z,3.65
2023-03-20T15:35:05.870Z,4.15
2023-03-20T15:37:56.347Z,4.40
2023-03-20T15:40:51.206Z,3.50
2023-03-20T15:43:39.006Z,3.85
2023-03-20T15:46:27.483Z,3.95
2023-03-20T15:49:19.946Z,3.67
2023-03-20T15:52:17.787Z,3.35
2023-03-20T15:55:19.891Z,3.13
2023-03-20T15:58:07.721Z,3.53
2023-03-20T16:00:55.779Z,2.95
2023-03-20T16:03:44.642Z,3.30
2023-03-20T16:06:32.471Z,2.95
2023-03-20T16:09:21.019Z,3.13
2023-03-20T16:12:19.610Z,3.22
2023-03-20T16:15:10.108Z,3.13
2023-03-20T16:18:06.993Z,3.00
2023-03-20T16:21:07.389Z,3.33
2023-03-20T16:23:59.535Z,3.92
2023-03-20T16:26:52.535Z,3.10
2023-03-20T16:29:44.342Z,2.60
2023-03-20T16:32:42.381Z,2.90
2023-03-20T16:35:43.144Z,5.07
2023-03-20T16:38:35.404Z,3.47
2023-03-20T16:41:34.090Z,2.43
2023-03-20T16:44:30.029Z,2.67
2023-03-20T16:47:23.882Z,2.90
2023-03-20T16:50:22.111Z,2.57
2023-03-20T16:53:17.153Z,9.60
2023-03-20T16:56:10.701Z,2.70
2023-03-20T16:58:58.676Z,2.40
2023-03-20T17:01:48.713Z,2.97
2023-03-20T17:04:44.303Z,2.00
2023-03-20T17:07:32.469Z,2.40
2023-03-20T17:10:27.061Z,1.83
2023-03-20T17:13:15.258Z,2.47
2023-03-20T17:16:03.345Z,2.63
2023-03-20T17:19:04.853Z,2.63
2023-03-20T17:21:52.464Z,8.77
2023-03-20T17:24:40.022Z,3.23
2023-03-20T17:27:29.935Z,2.40
2023-03-20T17:30:25.155Z,2.83
2023-03-20T17:33:16.843Z,3.03
2023-03-20T17:36:10.202Z,2.83
2023-03-20T17:38:59.451Z,2.80
2023-03-20T17:41:48.053Z,3.00
2023-03-20T17:44:35.558Z,2.80
2023-03-20T17:47:26.104Z,3.00
2023-03-20T17:50:25.535Z,2.60
2023-03-20T17:53:21.110Z,2.73
2023-03-20T17:56:16.944Z,3.67
2023-03-20T17:59:06.842Z,2.63
2023-03-20T18:01:54.301Z,3.93
2023-03-20T18:04:41.833Z,3.63
2023-03-20T18:07:32.271Z,3.03
2023-03-20T18:10:35.944Z,3.07
2023-03-20T18:13:27.162Z,3.13
2023-03-20T18:16:25.262Z,3.47
2023-03-20T18:19:28.839Z,2.73
2023-03-20T18:22:16.466Z,2.87
2023-03-20T18:25:04.785Z,3.27
2023-03-20T18:27:58.004Z,3.13
2023-03-20T18:30:45.575Z,3.37
2023-03-20T18:33:33.470Z,2.20
2023-03-20T18:36:24.334Z,3.27
2023-03-20T18:39:22.858Z,3.30
2023-03-20T18:42:12.869Z,2.83
2023-03-20T18:45:00.343Z,2.93
2023-03-20T18:47:48.468Z,3.60
2023-03-20T18:50:43.888Z,4.03
2023-03-20T18:53:31.854Z,4.43
2023-03-20T18:56:25.556Z,3.63
2023-03-20T18:59:16.767Z,3.43
2023-03-20T19:02:04.442Z,3.10
2023-03-20T19:04:51.971Z,2.40
2023-03-20T19:07:39.536Z,3.20
2023-03-20T19:10:36.529Z,2.90
2023-03-20T19:13:29.303Z,3.33
2023-03-20T19:16:23.568Z,3.37
2023-03-20T19:19:17.603Z,3.37
2023-03-20T19:22:05.505Z,3.50
2023-03-20T19:24:56.067Z,3.37
2023-03-20T19:27:46.384Z,4.03
2023-03-20T19:30:40.004Z,3.10
2023-03-20T19:33:27.544Z,2.97
2023-03-20T19:36:28.812Z,4.00
2023-03-20T19:39:16.492Z,2.73
2023-03-20T19:42:32.098Z,3.50
2023-03-20T19:45:13.671Z,3.83
2023-03-20T19:48:04.174Z,2.77
2023-03-20T19:50:52.049Z,3.00
2023-03-20T19:53:39.843Z,2.43
2023-03-20T19:56:27.607Z,3.57
2023-03-20T19:59:16.854Z,4.33
2023-03-20T20:02:05.189Z,3.30
2023-03-20T20:04:52.730Z,3.07
2023-03-20T20:08:12.800Z,3.10
2023-03-20T20:10:51.767Z,3.50
2023-03-20T20:14:03.766Z,3.07
2023-03-20T20:16:52.637Z,3.33
2023-03-20T20:19:41.218Z,4.03
2023-03-20T20:22:29.311Z,2.73
2023-03-20T20:25:19.547Z,3.93
2023-03-20T20:28:11.630Z,3.67
2023-03-20T20:30:59.774Z,3.03
2023-03-20T20:34:02.129Z,3.53
2023-03-20T20:40:05.103Z,3.63
2023-03-20T20:42:56.425Z,3.13
2023-03-20T20:45:44.517Z,3.40
2023-03-20T20:48:32.361Z,3.07
2023-03-20T20:51:19.954Z,3.37
2023-03-20T20:54:08.908Z,2.93
2023-03-20T20:56:56.651Z,3.10
2023-03-20T20:59:44.346Z,3.17
2023-03-20T21:02:33.537Z,2.57
2023-03-20T21:05:21.633Z,3.43
2023-03-20T21:08:09.126Z,2.80
2023-03-20T21:10:56.844Z,3.47
2023-03-20T21:13:44.425Z,3.63
2023-03-20T21:16:32.399Z,3.20
2023-03-20T21:19:20.367Z,2.67
2023-03-20T21:22:15.878Z,2.70
2023-03-20T21:25:16.811Z,3.03
2023-03-20T21:28:05.520Z,2.77
2023-03-20T21:31:22.778Z,3.00
2023-03-20T21:34:05.267Z,3.53
2023-03-20T21:36:57.793Z,4.50
2023-03-20T21:39:52.047Z,4.03
2023-03-20T21:42:39.500Z,3.50
2023-03-20T21:46:18.767Z,3.40
2023-03-20T21:49:43.100Z,4.20
2023-03-20T21:52:45.815Z,3.90
2023-03-20T21:56:00.061Z,3.97
2023-03-20T21:58:44.364Z,3.93
2023-03-20T22:05:20.901Z,3.90
2023-03-20T22:07:54.127Z,4.17
2023-03-20T22:23:45.667Z,4.40
2023-03-20T22:30:04.630Z,4.70
2023-03-20T22:33:11.877Z,4.97
2023-03-20T22:36:19.926Z,4.20
2023-03-20T22:45:03.977Z,4.40
2023-03-20T22:47:52.292Z,4.30
2023-03-20T22:50:40.676Z,5.00
2023-03-20T22:53:28.728Z,4.87
2023-03-20T22:56:16.342Z,5.30
2023-03-20T22:59:05.256Z,4.83
2023-03-20T23:01:52.947Z,4.80
2023-03-20T23:04:40.994Z,5.13
2023-03-20T23:07:28.670Z,4.10
2023-03-20T23:10:16.683Z,5.33
2023-03-20T23:13:05.216Z,4.70
2023-03-20T23:15:53.156Z,5.03
2023-03-20T23:18:41.781Z,4.80
2023-03-20T23:21:29.600Z,4.70
2023-03-20T23:24:17.154Z,3.60
2023-03-20T23:27:06.174Z,4.50
2023-03-20T23:29:56.266Z,4.13
2023-03-20T23:32:46.191Z,4.57
2023-03-20T23:35:36.686Z,3.87
2023-03-20T23:38:24.327Z,4.57
2023-03-20T23:41:14.545Z,4.57
2023-03-20T23:44:02.754Z,4.33
2023-03-20T23:46:52.245Z,4.13
2023-03-20T23:49:39.946Z,3.77
2023-03-20T23:52:27.608Z,4.60
2023-03-20T23:55:21.814Z,4.13
2023-03-20T23:58:13.372Z,4.13
